createdAt,value
2019-04-20T00:00:56.030Z,13.86
2019-04-20T00:03:23.700Z,13.97
2019-04-20T00:05:52.988Z,13.93
2019-04-20T00:08:25.188Z,13.97
2019-04-20T00:10:57.018Z,13.96
2019-04-20T00:13:32.317Z,13.91
2019-04-20T00:15:51.349Z,13.87
2019-04-20T00:18:19.209Z,13.83
2019-04-20T00:20:57.566Z,13.72
2019-04-20T00:23:33.444Z,13.66
2019-04-20T00:26:52.128Z,13.61
2019-04-20T00:29:10.338Z,13.61
2019-04-20T00:31:38.067Z,13.57
2019-04-20T00:34:02.411Z,13.57
2019-04-20T00:36:22.212Z,13.51
2019-04-20T00:38:53.627Z,13.47
2019-04-20T00:41:20.744Z,13.32
2019-04-20T00:43:49.153Z,13.09
2019-04-20T00:46:26.354Z,12.93
2019-04-20T00:48:57.231Z,12.68
2019-04-20T00:51:32.672Z,12.56
2019-04-20T00:53:48.989Z,12.55
2019-04-20T00:56:14.139Z,12.62
2019-04-20T00:58:52.299Z,12.70
2019-04-20T01:01:32.197Z,12.74
2019-04-20T01:04:04.587Z,12.99
2019-04-20T01:06:41.185Z,13.06
2019-04-20T01:09:05.509Z,13.16
2019-04-20T01:11:39.953Z,13.08
2019-04-20T01:14:09.403Z,13.06
2019-04-20T01:16:43.133Z,12.91
2019-04-20T01:19:04.744Z,12.66
2019-04-20T01:21:33.882Z,12.54
2019-04-20T01:24:04.927Z,12.50
2019-04-20T01:26:34.663Z,12.49
2019-04-20T01:29:12.160Z,12.61
2019-04-20T01:31:38.531Z,12.83
2019-04-20T01:34:08.251Z,12.94
2019-04-20T01:36:46.151Z,13.07
2019-04-20T01:39:11.168Z,13.06
2019-04-20T01:41:31.252Z,13.03
2019-04-20T01:43:58.556Z,12.91
2019-04-20T01:46:28.360Z,12.60
2019-04-20T01:48:54.884Z,12.47
2019-04-20T01:51:26.975Z,12.39
2019-04-20T01:54:14.785Z,12.34
2019-04-20T01:56:40.411Z,12.24
2019-04-20T01:59:44.812Z,12.27
2019-04-20T02:02:47.394Z,12.34
2019-04-20T02:05:17.952Z,12.54
2019-04-20T02:07:46.585Z,12.44
2019-04-20T02:10:14.752Z,12.27
2019-04-20T02:12:42.293Z,12.19
2019-04-20T02:15:20.043Z,12.16
2019-04-20T02:17:46.692Z,12.09
2019-04-20T02:20:31.913Z,12.01
2019-04-20T02:22:55.352Z,12.01
2019-04-20T02:25:12.159Z,12.08
2019-04-20T02:27:47.150Z,12.03
2019-04-20T02:30:39.632Z,11.93
2019-04-20T02:33:37.882Z,11.88
2019-04-20T02:39:05.550Z,11.84
2019-04-20T02:41:27.569Z,11.77
2019-04-20T02:43:57.694Z,11.75
2019-04-20T02:46:09.001Z,11.90
2019-04-20T02:48:41.600Z,11.75
2019-04-20T02:51:09.054Z,11.84
2019-04-20T02:53:57.478Z,11.99
2019-04-20T02:58:41.702Z,11.98
2019-04-20T03:01:05.078Z,11.94
2019-04-20T03:03:22.551Z,11.92
2019-04-20T03:05:52.056Z,12.01
2019-04-20T03:08:29.346Z,12.11
2019-04-20T03:11:05.832Z,12.06
2019-04-20T03:13:26.204Z,12.06
2019-04-20T03:15:56.436Z,12.03
2019-04-20T03:18:27.664Z,12.00
2019-04-20T03:21:00.790Z,12.05
2019-04-20T03:23:29.825Z,12.00
2019-04-20T03:26:06.434Z,12.04
2019-04-20T03:29:01.355Z,12.11
2019-04-20T03:32:08.512Z,12.08
2019-04-20T03:34:38.461Z,11.97
2019-04-20T03:36:50.042Z,12.01
2019-04-20T03:39:11.500Z,12.01
2019-04-20T03:41:26.401Z,11.91
2019-04-20T03:43:47.747Z,11.78
2019-04-20T03:46:19.958Z,11.66
2019-04-20T03:48:59.914Z,11.79
2019-04-20T03:51:40.143Z,11.84
2019-04-20T03:54:18.425Z,11.92
2019-04-20T03:57:21.251Z,11.86
2019-04-20T03:59:56.108Z,11.84
2019-04-20T04:03:08.303Z,11.95
2019-04-20T04:05:34.142Z,11.94
2019-04-20T04:07:58.019Z,12.05
2019-04-20T04:10:28.343Z,12.09
2019-04-20T04:13:22.925Z,12.24
2019-04-20T04:15:57.588Z,12.20
2019-04-20T04:18:29.136Z,12.28
2019-04-20T04:20:58.155Z,12.24
2019-04-20T04:23:36.624Z,12.27
2019-04-20T04:26:15.034Z,12.32
2019-04-20T04:28:37.224Z,12.38
2019-04-20T04:31:08.171Z,12.41
2019-04-20T04:36:00.362Z,12.51
2019-04-20T04:38:37.361Z,12.66
2019-04-20T04:41:11.232Z,12.65
2019-04-20T04:43:34.209Z,12.85
2019-04-20T04:45:41.075Z,12.74
2019-04-20T04:48:16.763Z,12.61
2019-04-20T04:50:48.334Z,12.55
2019-04-20T04:53:17.057Z,12.56
2019-04-20T04:55:47.702Z,12.60
2019-04-20T04:58:14.879Z,12.60
2019-04-20T05:00:51.545Z,12.46
2019-04-20T05:03:45.007Z,12.50
2019-04-20T05:06:35.511Z,12.33
2019-04-20T05:08:56.827Z,12.57
2019-04-20T05:11:21.813Z,12.74
2019-04-20T05:13:56.909Z,12.94
2019-04-20T05:16:43.469Z,13.30
2019-04-20T05:19:13.472Z,13.17
2019-04-20T05:22:11.077Z,13.40
2019-04-20T05:24:43.959Z,13.77
2019-04-20T05:27:51.051Z,13.94
2019-04-20T05:30:01.518Z,13.51
2019-04-20T05:32:39.684Z,13.36
2019-04-20T05:35:25.501Z,13.32
2019-04-20T05:37:59.198Z,13.53
2019-04-20T05:40:16.470Z,13.62
2019-04-20T05:42:54.140Z,13.86
2019-04-20T05:45:16.492Z,13.77
2019-04-20T05:47:48.378Z,13.78
2019-04-20T05:50:15.235Z,14.00
2019-04-20T05:55:16.218Z,14.09
2019-04-20T05:57:51.876Z,14.29
2019-04-20T06:00:23.337Z,14.16
2019-04-20T06:02:46.824Z,14.64
2019-04-20T06:05:36.475Z,14.15
2019-04-20T06:07:48.801Z,14.57
2019-04-20T06:10:20.801Z,14.48
2019-04-20T06:12:49.883Z,14.40
2019-04-20T06:15:26.458Z,14.22
2019-04-20T06:18:13.541Z,14.90
2019-04-20T06:20:50.898Z,14.87
2019-04-20T06:23:59.329Z,15.15
2019-04-20T06:27:16.027Z,14.94
2019-04-20T06:29:31.036Z,15.32
2019-04-20T06:32:17.333Z,15.32
2019-04-20T06:34:51.323Z,15.35
2019-04-20T06:49:33.306Z,16.53
2019-04-20T06:52:24.373Z,16.98
2019-04-20T06:55:28.989Z,16.71
2019-04-20T06:57:45.462Z,16.47
2019-04-20T07:02:53.963Z,17.56
2019-04-20T07:05:25.998Z,17.79
2019-04-20T07:08:48.915Z,18.80
2019-04-20T07:11:13.532Z,18.49
2019-04-20T07:13:30.883Z,18.74
2019-04-20T07:16:21.373Z,19.20
2019-04-20T07:19:25.942Z,18.94
2019-04-20T07:22:25.327Z,18.66
2019-04-20T07:24:50.846Z,19.39
2019-04-20T07:27:22.886Z,19.27
2019-04-20T07:32:19.491Z,19.51
2019-04-20T07:34:54.021Z,19.70
2019-04-20T07:39:58.897Z,20.65
2019-04-20T07:42:32.837Z,20.89
2019-04-20T07:45:01.562Z,21.18
2019-04-20T07:47:34.476Z,21.23
2019-04-20T07:49:50.026Z,20.91
2019-04-20T07:52:02.151Z,21.24
2019-04-20T07:55:12.452Z,21.34
2019-04-20T07:57:21.542Z,22.10
2019-04-20T07:59:50.955Z,22.18
2019-04-20T08:02:48.845Z,21.92
2019-04-20T08:05:10.675Z,22.64
2019-04-20T08:07:39.208Z,22.35
2019-04-20T08:10:02.897Z,22.72
2019-04-20T08:12:55.903Z,22.87
2019-04-20T08:15:34.060Z,22.75
2019-04-20T08:17:56.352Z,22.67
2019-04-20T08:20:20.772Z,22.29
2019-04-20T08:22:55.313Z,22.82
2019-04-20T08:25:14.234Z,22.96
2019-04-20T08:27:48.816Z,22.89
2019-04-20T08:30:42.363Z,23.01
2019-04-20T08:33:19.627Z,23.22
2019-04-20T08:36:02.794Z,23.36
2019-04-20T08:38:51.130Z,23.59
2019-04-20T08:40:53.901Z,23.47
2019-04-20T08:43:38.235Z,23.56
2019-04-20T08:45:51.045Z,22.94
2019-04-20T08:48:25.762Z,22.65
2019-04-20T08:50:51.340Z,22.81
2019-04-20T08:53:27.686Z,23.29
2019-04-20T08:55:45.057Z,23.73
2019-04-20T08:58:02.702Z,24.14
2019-04-20T09:00:41.779Z,24.16
2019-04-20T09:03:15.311Z,24.07
2019-04-20T09:05:45.578Z,24.33
2019-04-20T09:08:11.021Z,24.29
2019-04-20T09:10:49.238Z,24.16
2019-04-20T09:13:15.921Z,24.20
2019-04-20T09:15:34.185Z,24.47
2019-04-20T09:18:13.940Z,24.48
2019-04-20T09:20:48.714Z,24.50
2019-04-20T09:23:36.309Z,24.49
2019-04-20T09:26:26.571Z,24.82
2019-04-20T09:28:59.297Z,24.59
2019-04-20T09:31:39.254Z,24.41
2019-04-20T09:34:40.324Z,24.27
2019-04-20T09:37:41.425Z,24.40
2019-04-20T09:40:00.936Z,24.27
2019-04-20T09:42:21.488Z,24.35
2019-04-20T09:44:55.986Z,24.21
2019-04-20T09:47:28.327Z,25.25
2019-04-20T09:50:02.717Z,25.88
2019-04-20T09:52:31.349Z,26.01
2019-04-20T09:55:03.121Z,26.44
2019-04-20T09:57:34.070Z,26.79
2019-04-20T10:00:01.712Z,28.80
2019-04-20T10:02:22.017Z,28.74
2019-04-20T10:04:43.954Z,29.87
2019-04-20T10:07:15.992Z,29.75
2019-04-20T10:09:44.853Z,30.21
2019-04-20T10:12:09.566Z,30.33
2019-04-20T10:14:36.733Z,29.53
2019-04-20T10:17:03.808Z,31.00
2019-04-20T10:19:34.652Z,32.85
2019-04-20T10:22:02.514Z,34.31
2019-04-20T10:24:30.657Z,36.02
2019-04-20T10:26:58.784Z,36.56
2019-04-20T10:29:27.890Z,35.17
2019-04-20T10:31:58.647Z,34.59
2019-04-20T10:34:24.296Z,34.59
2019-04-20T10:37:11.449Z,35.37
2019-04-20T10:39:40.558Z,34.62
2019-04-20T10:42:08.147Z,33.92
2019-04-20T10:44:36.607Z,33.44
2019-04-20T10:47:05.048Z,33.79
2019-04-20T10:49:33.375Z,34.18
2019-04-20T10:52:01.956Z,35.19
2019-04-20T10:54:32.363Z,34.57
2019-04-20T10:57:01.417Z,32.86
2019-04-20T10:59:29.814Z,30.95
2019-04-20T11:01:59.671Z,29.83
2019-04-20T11:04:28.421Z,31.33
2019-04-20T11:06:56.668Z,32.91
2019-04-20T11:09:27.324Z,32.43
2019-04-20T11:11:54.505Z,33.14
2019-04-20T11:14:28.141Z,33.37
2019-04-20T11:16:52.280Z,33.66
2019-04-20T11:19:21.123Z,34.80
2019-04-20T11:21:50.318Z,37.76
2019-04-20T11:24:32.272Z,40.46
2019-04-20T11:27:18.354Z,40.15
2019-04-20T11:29:46.773Z,39.46
2019-04-20T11:32:14.313Z,36.44
2019-04-20T11:34:42.473Z,37.72
2019-04-20T11:37:15.278Z,36.48
2019-04-20T11:39:43.159Z,38.48
2019-04-20T11:42:19.555Z,38.16
2019-04-20T11:44:50.831Z,37.91
2019-04-20T11:47:18.937Z,35.14
2019-04-20T11:49:49.497Z,37.63
2019-04-20T11:52:21.127Z,37.90
2019-04-20T11:54:54.727Z,39.76
2019-04-20T11:57:27.169Z,39.28
2019-04-20T11:59:55.038Z,39.90
2019-04-20T12:02:37.126Z,38.32
2019-04-20T12:05:19.883Z,36.32
2019-04-20T12:07:55.755Z,38.26
2019-04-20T12:10:26.389Z,38.66
2019-04-20T12:12:55.625Z,37.65
2019-04-20T12:15:32.188Z,38.13
2019-04-20T12:17:59.868Z,39.16
2019-04-20T12:20:29.058Z,41.55
2019-04-20T12:23:00.292Z,42.32
2019-04-20T12:25:28.198Z,40.02
2019-04-20T12:28:00.136Z,36.98
2019-04-20T12:30:29.968Z,35.09
2019-04-20T12:33:02.186Z,35.66
2019-04-20T12:35:32.091Z,35.97
2019-04-20T12:37:59.190Z,37.69
2019-04-20T12:40:28.378Z,39.56
2019-04-20T12:42:59.229Z,38.72
2019-04-20T12:45:33.557Z,40.25
2019-04-20T12:48:04.006Z,40.96
2019-04-20T12:50:37.344Z,41.17
2019-04-20T12:53:04.658Z,40.88
2019-04-20T12:55:32.598Z,40.65
2019-04-20T12:58:02.845Z,40.66
2019-04-20T13:00:41.711Z,41.44
2019-04-20T13:03:09.536Z,40.68
2019-04-20T13:05:38.077Z,41.18
2019-04-20T13:08:07.972Z,40.75
2019-04-20T13:10:37.629Z,39.63
2019-04-20T13:13:28.189Z,40.58
2019-04-20T13:16:08.200Z,39.40
2019-04-20T13:18:41.144Z,39.53
2019-04-20T13:21:09.298Z,38.11
2019-04-20T13:23:37.270Z,38.71
2019-04-20T13:26:09.223Z,41.12
2019-04-20T13:28:37.068Z,42.18
2019-04-20T13:31:05.986Z,41.18
2019-04-20T13:33:35.029Z,42.43
2019-04-20T13:36:04.059Z,41.41
2019-04-20T13:38:32.037Z,42.10
2019-04-20T13:40:59.860Z,42.10
2019-04-20T13:43:27.933Z,43.05
2019-04-20T13:45:55.199Z,40.17
2019-04-20T13:48:22.414Z,40.03
2019-04-20T13:50:49.759Z,41.42
2019-04-20T13:53:17.239Z,39.97
2019-04-20T13:55:45.475Z,40.21
2019-04-20T13:58:33.932Z,39.11
2019-04-20T14:01:23.370Z,40.32
2019-04-20T14:04:05.273Z,41.98
2019-04-20T14:06:33.167Z,43.07
2019-04-20T14:09:01.283Z,42.70
2019-04-20T14:11:31.542Z,40.15
2019-04-20T14:14:01.463Z,39.85
2019-04-20T14:16:27.526Z,38.66
2019-04-20T14:18:57.010Z,41.85
2019-04-20T14:21:24.245Z,43.45
2019-04-20T14:23:51.316Z,41.69
2019-04-20T14:26:18.855Z,39.09
2019-04-20T14:28:49.355Z,42.81
2019-04-20T14:31:16.774Z,47.01
2019-04-20T14:33:44.620Z,47.01
2019-04-20T14:36:13.061Z,43.32
2019-04-20T14:38:40.262Z,42.18
2019-04-20T14:41:08.460Z,40.15
2019-04-20T14:43:37.008Z,40.49
2019-04-20T14:46:05.066Z,43.02
2019-04-20T14:48:32.691Z,43.59
2019-04-20T14:50:59.823Z,41.27
2019-04-20T14:53:29.485Z,40.48
2019-04-20T14:55:59.703Z,39.67
2019-04-20T14:58:45.335Z,38.37
2019-04-20T15:01:26.862Z,37.77
2019-04-20T15:04:02.820Z,37.11
2019-04-20T15:06:23.430Z,39.37
2019-04-20T15:09:10.764Z,38.62
2019-04-20T15:11:41.752Z,39.09
2019-04-20T15:14:11.086Z,39.50
2019-04-20T15:16:38.610Z,38.49
2019-04-20T15:22:33.848Z,39.21
2019-04-20T15:25:01.420Z,40.66
2019-04-20T15:27:28.675Z,42.82
2019-04-20T15:29:56.144Z,44.32
2019-04-20T15:32:24.942Z,42.81
2019-04-20T15:34:53.105Z,42.13
2019-04-20T15:37:30.988Z,41.35
2019-04-20T15:39:59.050Z,41.46
2019-04-20T15:42:27.514Z,40.11
2019-04-20T15:44:58.132Z,42.26
2019-04-20T15:47:32.034Z,44.08
2019-04-20T15:50:07.704Z,44.00
2019-04-20T15:52:44.595Z,43.43
2019-04-20T15:55:17.001Z,42.95
2019-04-20T15:57:44.825Z,41.06
2019-04-20T16:00:14.365Z,39.10
2019-04-20T16:02:49.574Z,38.66
2019-04-20T16:05:47.215Z,40.04
2019-04-20T16:08:46.056Z,41.41
2019-04-20T16:11:13.460Z,41.79
2019-04-20T16:13:44.708Z,37.97
2019-04-20T16:16:12.162Z,37.64
2019-04-20T16:18:41.474Z,38.24
2019-04-20T16:21:15.610Z,39.13
2019-04-20T16:24:06.537Z,39.19
2019-04-20T16:26:49.617Z,40.38
2019-04-20T16:29:19.523Z,41.29
2019-04-20T16:31:49.059Z,38.80
2019-04-20T16:34:25.969Z,36.37
2019-04-20T16:36:56.456Z,34.94
2019-04-20T16:39:25.182Z,34.65
2019-04-20T16:41:52.322Z,34.76
2019-04-20T16:44:19.354Z,35.56
2019-04-20T16:46:50.180Z,34.93
2019-04-20T16:49:19.138Z,33.58
2019-04-20T16:51:47.653Z,34.86
2019-04-20T16:54:15.876Z,36.35
2019-04-20T16:56:44.535Z,37.00
2019-04-20T16:59:14.202Z,36.82
2019-04-20T17:01:42.583Z,36.08
2019-04-20T17:04:15.411Z,35.46
2019-04-20T17:06:47.778Z,34.86
2019-04-20T17:09:16.226Z,34.95
2019-04-20T17:11:43.776Z,35.55
2019-04-20T17:14:14.817Z,35.38
2019-04-20T17:16:45.946Z,33.82
2019-04-20T17:19:13.528Z,33.28
2019-04-20T17:22:15.246Z,33.16
2019-04-20T17:24:49.440Z,33.69
2019-04-20T17:27:44.619Z,32.47
2019-04-20T17:30:39.968Z,32.78
2019-04-20T17:33:13.993Z,33.21
2019-04-20T17:35:57.335Z,33.26
2019-04-20T17:38:36.170Z,33.03
2019-04-20T17:41:22.408Z,32.74
2019-04-20T17:44:05.893Z,32.39
2019-04-20T17:46:47.652Z,31.82
2019-04-20T17:49:19.735Z,31.69
2019-04-20T17:52:06.263Z,31.15
2019-04-20T17:54:27.844Z,30.25
2019-04-20T17:56:56.324Z,30.13
2019-04-20T17:59:47.226Z,29.70
2019-04-20T18:02:58.580Z,29.14
2019-04-20T18:06:03.377Z,28.71
2019-04-20T18:08:29.729Z,28.22
2019-04-20T18:10:57.331Z,27.63
2019-04-20T18:13:22.468Z,26.91
2019-04-20T18:16:12.742Z,26.27
2019-04-20T18:18:52.877Z,25.68
2019-04-20T18:21:28.646Z,24.90
2019-04-20T18:23:58.387Z,23.99
2019-04-20T18:26:48.039Z,23.07
2019-04-20T18:29:37.330Z,22.40
2019-04-20T18:32:15.632Z,22.04
2019-04-20T18:35:40.446Z,21.79
2019-04-20T18:38:07.699Z,21.71
2019-04-20T18:40:41.578Z,21.32
2019-04-20T18:43:08.225Z,21.14
2019-04-20T18:45:53.447Z,21.03
2019-04-20T18:48:24.986Z,20.80
2019-04-20T18:50:40.340Z,20.76
2019-04-20T18:53:14.789Z,20.90
2019-04-20T18:55:43.741Z,20.98
2019-04-20T18:58:06.932Z,20.96
2019-04-20T19:00:40.789Z,20.91
2019-04-20T19:03:12.035Z,20.86
2019-04-20T19:05:35.759Z,20.72
2019-04-20T19:08:08.434Z,20.55
2019-04-20T19:10:36.175Z,20.41
2019-04-20T19:13:08.105Z,20.26
2019-04-20T19:16:00.257Z,20.14
2019-04-20T19:18:50.711Z,20.17
2019-04-20T19:21:05.248Z,20.10
2019-04-20T19:23:36.666Z,20.01
2019-04-20T19:26:09.623Z,19.96
2019-04-20T19:28:42.193Z,20.02
2019-04-20T19:31:17.604Z,19.91
2019-04-20T19:33:54.696Z,19.94
2019-04-20T19:36:15.198Z,19.95
2019-04-20T19:38:43.007Z,19.86
2019-04-20T19:41:16.408Z,19.78
2019-04-20T19:43:35.773Z,19.79
2019-04-20T19:46:34.906Z,19.73
2019-04-20T19:48:39.304Z,19.67
2019-04-20T19:51:24.054Z,19.63
2019-04-20T19:53:58.733Z,19.67
2019-04-20T19:56:16.982Z,19.66
2019-04-20T19:58:49.691Z,19.65
2019-04-20T20:01:02.901Z,19.52
2019-04-20T20:03:30.499Z,19.55
2019-04-20T20:05:59.668Z,19.46
2019-04-20T20:08:29.947Z,19.19
2019-04-20T20:11:00.837Z,19.19
2019-04-20T20:13:34.584Z,19.01
2019-04-20T20:16:09.008Z,19.05
2019-04-20T20:18:39.299Z,18.83
2019-04-20T20:21:07.345Z,18.67
2019-04-20T20:23:23.905Z,18.48
2019-04-20T20:25:51.472Z,18.47
2019-04-20T20:28:32.272Z,18.54
2019-04-20T20:31:05.059Z,18.50
2019-04-20T20:33:39.636Z,18.45
2019-04-20T20:36:05.620Z,18.55
2019-04-20T20:38:33.984Z,18.47
2019-04-20T20:41:10.582Z,18.44
2019-04-20T20:43:40.745Z,18.40
2019-04-20T20:46:06.488Z,18.38
2019-04-20T20:48:38.764Z,18.41
2019-04-20T20:51:13.592Z,18.33
2019-04-20T20:53:38.733Z,18.12
2019-04-20T20:56:06.272Z,18.05
2019-04-20T20:58:43.079Z,18.03
2019-04-20T21:01:04.374Z,17.90
2019-04-20T21:03:32.188Z,17.96
2019-04-20T21:05:55.601Z,17.82
2019-04-20T21:08:23.905Z,17.83
2019-04-20T21:10:52.697Z,17.76
2019-04-20T21:13:21.466Z,17.65
2019-04-20T21:15:53.898Z,17.47
2019-04-20T21:18:36.888Z,17.51
2019-04-20T21:21:06.439Z,17.48
2019-04-20T21:23:35.301Z,17.62
2019-04-20T21:26:06.886Z,17.50
2019-04-20T21:28:36.246Z,17.42
2019-04-20T21:31:12.522Z,17.39
2019-04-20T21:33:40.113Z,17.21
2019-04-20T21:36:07.153Z,17.20
2019-04-20T21:38:39.348Z,17.15
2019-04-20T21:41:09.410Z,17.08
2019-04-20T21:43:37.285Z,16.87
2019-04-20T21:46:05.480Z,16.90
2019-04-20T21:48:49.207Z,16.76
2019-04-20T21:51:16.605Z,16.63
2019-04-20T21:53:33.375Z,16.57
2019-04-20T21:55:59.785Z,16.48
2019-04-20T21:58:33.277Z,16.54
2019-04-20T22:01:08.071Z,16.44
2019-04-20T22:03:30.000Z,16.41
2019-04-20T22:06:07.054Z,16.23
2019-04-20T22:08:39.436Z,16.15
2019-04-20T22:11:06.308Z,16.06
2019-04-20T22:13:38.891Z,16.01
2019-04-20T22:16:07.284Z,15.97
2019-04-20T22:18:46.363Z,15.87
2019-04-20T22:21:11.195Z,15.89
2019-04-20T22:23:49.237Z,15.98
2019-04-20T22:26:12.077Z,16.09
2019-04-20T22:28:29.757Z,16.07
2019-04-20T22:30:57.979Z,16.06
2019-04-20T22:33:36.568Z,15.97
2019-04-20T22:36:04.497Z,15.89
2019-04-20T22:39:07.522Z,15.80
2019-04-20T22:41:40.876Z,15.55
2019-04-20T22:44:15.158Z,15.34
2019-04-20T22:46:40.873Z,15.19
2019-04-20T22:49:26.892Z,15.07
2019-04-20T22:51:48.216Z,15.16
2019-04-20T22:54:23.267Z,15.08
2019-04-20T22:56:47.266Z,15.05
2019-04-20T22:59:12.725Z,14.91
2019-04-20T23:01:44.434Z,14.87
2019-04-20T23:04:06.394Z,14.83
2019-04-20T23:06:40.149Z,14.93
2019-04-20T23:09:10.324Z,14.86
2019-04-20T23:11:37.150Z,14.81
2019-04-20T23:14:04.930Z,14.76
2019-04-20T23:16:37.846Z,14.74
2019-04-20T23:19:02.439Z,14.76
2019-04-20T23:21:29.977Z,14.62
2019-04-20T23:24:01.585Z,14.54
2019-04-20T23:26:33.493Z,14.58
2019-04-20T23:28:58.725Z,14.62
2019-04-20T23:31:25.673Z,14.59
2019-04-20T23:33:53.959Z,14.57
2019-04-20T23:36:30.695Z,14.47
2019-04-20T23:38:54.733Z,14.39
2019-04-20T23:41:21.882Z,14.36
2019-04-20T23:44:03.815Z,14.38
2019-04-20T23:46:47.865Z,14.36
2019-04-20T23:49:34.155Z,14.28
2019-04-20T23:52:29.591Z,14.26
2019-04-20T23:54:30.230Z,14.25
2019-04-20T23:56:57.533Z,14.18
2019-04-20T23:59:32.365Z,14.16
